Terminal Aerodrome Forecast
Issued by NWS

Current Version | Previous Version | Text Only | Print | Product List | Glossary On
Versions: 1 2 3 4 5 6 7 8 9 10 11 12 13 14 15 16
000
FTUS41 KILN 121100
TAFLUK
TAF
KLUK 121140Z 1212/1312 VRB03KT 4SM BR BKN120
     FM121300 22004KT P6SM SCT150
     FM121500 22008KT P6SM SCT050 BKN120
     FM122100 24008KT P6SM VCSH BKN060
     FM130100 19004KT P6SM BKN100
     FM131100 20010KT P6SM BKN080=

USA.gov is the U.S. government's official web portal to all federal, state and local government web resources and services.